KBOK/BOK METAR and TAF weather

Enter ICAO airport designator
Station Type Date Time Source
KBOK METAR 2019/04/26 02:56 UTC NOAA

KBOK 260256Z AUTO 15004KT 10SM CLR 12/09 A3003 RMK AO2 SLP186 T01170089 53006


Station Type Date Time Source
KBOK Decoded METAR 2019/04/26 02:56 UTC NOAA

Brookings, Brookings Airport, OR, United States (KBOK) 42-04-28N 124-17-24W
Apr 25, 2019 - 10:56 PM EDT / 2019.04.26 0256 UTC
Wind: from the SSE (150 degrees) at 5 MPH (4 KT):0
Visibility: 10 mile(s):0
Sky conditions: clear
Temperature: 53.1 F (11.7 C)
Dew Point: 48.0 F (8.9 C)
Relative Humidity: 82%
Pressure (altimeter): 30.03 in. Hg (1016 hPa)
Pressure tendency: 0.02 inches (0.6 hPa) higher than three hours ago
ob: KBOK 260256Z AUTO 15004KT 10SM CLR 12/09 A3003 RMK AO2 SLP186 T01170089 53006
cycle: 3

Station Type Date Time Source
KBOK TAF UTC NOAA

Error!

Example: see airport list